Time;durP1;ratioP1;P1;durP2;ratioP2;P2;SDS_P1;SDS_P2;PMS_P1;PMS_P2;Temp;Humidity;BMP_temperature;BMP_pressure;BME280_temperature;BME280_humidity;BME280_pressure;Samples;Min_cycle;Max_cycle;Signal;HPM_P1;HPM_P2
2023/09/01 00:00:30;;;;;;;15.27;9.88;;;11.90;99.90;;;;;;5032479;28;20555;-53
2023/09/01 00:02:55;;;;;;;13.50;8.25;;;11.90;99.90;;;;;;5031412;28;20037;-53
2023/09/01 00:05:21;;;;;;;11.23;8.98;;;11.90;99.90;;;;;;5032135;28;20076;-52
2023/09/01 00:07:47;;;;;;;10.13;7.72;;;11.90;99.90;;;;;;5031615;28;20033;-54
2023/09/01 00:10:12;;;;;;;10.70;7.38;;;11.80;99.90;;;;;;5028572;28;20034;-53
2023/09/01 00:12:38;;;;;;;14.25;9.02;;;11.80;99.90;;;;;;5018456;28;20509;-53
2023/09/01 00:15:04;;;;;;;8.43;7.60;;;11.80;99.90;;;;;;5028175;28;20030;-52
2023/09/01 00:17:29;;;;;;;15.75;8.77;;;11.80;99.90;;;;;;5020852;28;20057;-53
2023/09/01 00:19:55;;;;;;;15.55;8.77;;;11.70;99.90;;;;;;5020975;28;20579;-54
2023/09/01 00:22:21;;;;;;;13.00;9.25;;;11.70;99.90;;;;;;5020743;28;20369;-53
2023/09/01 00:24:46;;;;;;;11.88;8.90;;;11.70;99.90;;;;;;5022932;28;20033;-52
2023/09/01 00:27:11;;;;;;;15.05;9.98;;;11.70;99.90;;;;;;5020005;28;20474;-53
2023/09/01 00:29:37;;;;;;;13.73;8.13;;;11.70;99.90;;;;;;5038772;28;20044;-53
2023/09/01 00:32:03;;;;;;;10.20;7.57;;;11.70;99.90;;;;;;5018876;28;20021;-53
2023/09/01 00:34:30;;;;;;;11.23;8.25;;;11.70;99.90;;;;;;5017051;28;20037;-54
2023/09/01 00:36:56;;;;;;;15.35;8.93;;;11.70;99.90;;;;;;5021726;28;20060;-53
2023/09/01 00:39:21;;;;;;;14.60;9.93;;;11.70;99.90;;;;;;5019077;28;20062;-53
2023/09/01 00:41:47;;;;;;;12.18;9.02;;;11.70;99.90;;;;;;5029889;28;20449;-53
2023/09/01 00:44:14;;;;;;;11.30;9.10;;;11.60;99.90;;;;;;5046087;28;20021;-53
2023/09/01 00:46:43;;;;;;;10.52;8.48;;;11.70;99.90;;;;;;5043346;28;20083;-53
2023/09/01 00:49:10;;;;;;;9.70;8.30;;;11.70;99.90;;;;;;5019983;28;20018;-53
2023/09/01 00:51:36;;;;;;;11.95;9.23;;;11.70;99.90;;;;;;5021762;28;20023;-53
2023/09/01 00:54:02;;;;;;;11.25;8.48;;;11.70;99.90;;;;;;5019998;28;20033;-53
2023/09/01 00:56:28;;;;;;;11.02;7.93;;;11.70;99.90;;;;;;5040269;28;20041;-53
2023/09/01 00:58:54;;;;;;;10.65;8.45;;;11.70;99.90;;;;;;5030657;28;20029;-53
2023/09/01 01:01:19;;;;;;;11.00;8.40;;;11.70;99.90;;;;;;5030739;28;20395;-53
2023/09/01 01:04:28;;;;;;;10.23;7.82;;;11.70;99.90;;;;;;5027564;28;20025;-53
2023/09/01 01:07:12;;;;;;;11.02;8.25;;;11.60;99.90;;;;;;5027009;28;20087;-53
2023/09/01 01:09:55;;;;;;;12.85;8.20;;;11.70;99.90;;;;;;5031544;28;20022;-54
2023/09/01 01:12:30;;;;;;;12.15;7.53;;;11.60;99.90;;;;;;5041182;28;20067;-52
2023/09/01 01:14:58;;;;;;;10.18;8.30;;;11.70;99.90;;;;;;5021137;28;20033;-54
2023/09/01 01:17:25;;;;;;;11.60;7.88;;;11.60;99.90;;;;;;5019918;28;20521;-55
2023/09/01 01:20:13;;;;;;;9.70;8.48;;;11.60;99.90;;;;;;5017229;28;20029;-53
2023/09/01 01:22:42;;;;;;;13.55;8.20;;;11.60;99.90;;;;;;5013819;28;20040;-54
2023/09/01 01:25:10;;;;;;;10.90;8.50;;;11.60;99.90;;;;;;5010326;28;20030;-53
2023/09/01 01:27:36;;;;;;;11.18;7.47;;;11.60;99.90;;;;;;5011069;28;20055;-53
2023/09/01 01:30:02;;;;;;;11.07;8.50;;;11.60;99.90;;;;;;5011346;28;20040;-52
2023/09/01 01:32:28;;;;;;;9.38;8.02;;;11.60;99.90;;;;;;5010508;28;20437;-52
2023/09/01 01:35:24;;;;;;;13.32;8.55;;;11.60;99.90;;;;;;5009605;28;20042;-52
2023/09/01 01:37:55;;;;;;;13.27;8.93;;;11.60;99.90;;;;;;5017094;28;20060;-50
2023/09/01 01:40:23;;;;;;;12.07;8.02;;;11.70;99.90;;;;;;5029963;28;20017;-52
2023/09/01 01:42:50;;;;;;;11.70;7.97;;;11.70;99.90;;;;;;5029436;28;20033;-52
2023/09/01 01:45:20;;;;;;;12.15;7.75;;;11.70;99.90;;;;;;5029692;28;20506;-52
2023/09/01 01:47:50;;;;;;;7.45;6.50;;;11.60;99.90;;;;;;5044346;28;20026;-52
2023/09/01 01:50:16;;;;;;;9.00;6.60;;;11.60;99.90;;;;;;5029051;28;20597;-53
2023/09/01 01:52:42;;;;;;;10.23;6.25;;;11.60;99.90;;;;;;5029981;28;20052;-52
2023/09/01 01:55:08;;;;;;;9.93;7.10;;;11.60;99.90;;;;;;5029298;28;20040;-53
2023/09/01 01:57:34;;;;;;;13.80;8.43;;;11.60;99.90;;;;;;5029650;28;20026;-52
2023/09/01 01:59:59;;;;;;;11.70;8.20;;;11.60;99.90;;;;;;5029949;28;20095;-53
2023/09/01 02:02:25;;;;;;;13.52;7.97;;;11.60;99.90;;;;;;5028512;28;20035;-53
2023/09/01 02:04:51;;;;;;;12.98;7.82;;;11.60;99.90;;;;;;5029256;28;20040;-53
2023/09/01 02:07:16;;;;;;;13.65;8.43;;;11.60;99.90;;;;;;5029658;28;20388;-53
2023/09/01 02:09:42;;;;;;;12.63;7.50;;;11.60;99.90;;;;;;5029638;28;20029;-52
2023/09/01 02:12:08;;;;;;;10.18;7.85;;;11.60;99.90;;;;;;5029477;28;20056;-52
2023/09/01 02:14:34;;;;;;;15.13;8.52;;;11.50;99.90;;;;;;5029209;28;20037;-52
2023/09/01 02:17:00;;;;;;;11.95;8.43;;;11.60;99.90;;;;;;5028138;28;20021;-54
2023/09/01 02:19:27;;;;;;;11.57;8.57;;;11.50;99.90;;;;;;5028809;28;20080;-53
2023/09/01 02:21:53;;;;;;;9.00;7.55;;;11.50;99.90;;;;;;5029648;28;20029;-55
2023/09/01 02:24:19;;;;;;;10.85;8.32;;;11.50;99.90;;;;;;5028433;28;20034;-53
2023/09/01 02:26:44;;;;;;;8.57;6.97;;;11.60;99.90;;;;;;5027203;28;20022;-53
2023/09/01 02:29:10;;;;;;;11.68;7.53;;;11.60;99.90;;;;;;5028613;28;20044;-53
2023/09/01 02:31:35;;;;;;;9.57;7.20;;;11.60;99.90;;;;;;5029229;28;20506;-52
2023/09/01 02:34:04;;;;;;;10.50;7.60;;;11.50;99.90;;;;;;5028210;28;20522;-52
2023/09/01 02:36:34;;;;;;;19.02;9.60;;;11.50;99.90;;;;;;5028359;28;20032;-52
2023/09/01 02:39:00;;;;;;;15.73;8.47;;;11.50;99.90;;;;;;5028556;28;20072;-53
2023/09/01 02:41:26;;;;;;;10.85;8.55;;;11.50;99.90;;;;;;5029350;28;20276;-53
2023/09/01 02:43:53;;;;;;;10.05;7.18;;;11.50;99.90;;;;;;5029487;28;20025;-54
2023/09/01 02:46:18;;;;;;;12.90;8.13;;;11.50;99.90;;;;;;5028918;28;20144;-52
2023/09/01 02:48:44;;;;;;;12.15;7.68;;;11.50;99.90;;;;;;5028202;28;20124;-53
2023/09/01 02:51:10;;;;;;;12.77;7.78;;;11.40;99.90;;;;;;5029383;28;20498;-52
2023/09/01 02:53:36;;;;;;;10.30;7.75;;;11.40;99.90;;;;;;5044765;28;20453;-53
2023/09/01 02:56:03;;;;;;;9.43;7.43;;;11.50;99.90;;;;;;5032734;28;20025;-52
2023/09/01 02:58:28;;;;;;;14.95;8.20;;;11.40;99.90;;;;;;5033721;28;20323;-52
2023/09/01 03:00:54;;;;;;;12.80;7.57;;;11.50;99.90;;;;;;5033417;28;20026;-51
2023/09/01 03:03:21;;;;;;;10.50;8.00;;;11.40;99.90;;;;;;5033000;28;20076;-51
2023/09/01 03:05:49;;;;;;;11.88;7.72;;;11.40;99.90;;;;;;5047911;28;20479;-52
2023/09/01 03:08:15;;;;;;;12.55;7.22;;;11.40;99.90;;;;;;5033039;28;20060;-49
2023/09/01 03:10:41;;;;;;;10.77;7.22;;;11.40;99.90;;;;;;5033237;28;20033;-51
2023/09/01 03:13:06;;;;;;;10.57;6.93;;;11.40;99.90;;;;;;5032572;28;20038;-51
2023/09/01 03:15:32;;;;;;;11.13;8.13;;;11.40;99.90;;;;;;5032693;28;20095;-49
2023/09/01 03:17:57;;;;;;;7.97;6.82;;;11.40;99.90;;;;;;5031772;28;20100;-52
2023/09/01 03:20:23;;;;;;;11.10;7.63;;;11.40;99.90;;;;;;5032842;28;20083;-52
2023/09/01 03:22:49;;;;;;;11.25;7.85;;;11.40;99.90;;;;;;5031372;28;20129;-50
2023/09/01 03:25:15;;;;;;;12.20;8.35;;;11.30;99.90;;;;;;5032235;28;20045;-50
2023/09/01 03:27:40;;;;;;;12.30;7.20;;;11.30;99.90;;;;;;5032667;28;20494;-51
2023/09/01 03:30:07;;;;;;;8.32;7.05;;;11.30;99.90;;;;;;5032667;28;20269;-52
2023/09/01 03:32:35;;;;;;;8.45;7.28;;;11.30;99.90;;;;;;5032713;28;20025;-52
2023/09/01 03:35:01;;;;;;;10.48;7.35;;;11.30;99.90;;;;;;5032346;28;20040;-52
2023/09/01 03:37:28;;;;;;;10.25;7.72;;;11.30;99.90;;;;;;5032870;28;20025;-53
2023/09/01 03:39:53;;;;;;;7.43;6.18;;;11.30;99.90;;;;;;5032524;28;20522;-52
2023/09/01 03:42:19;;;;;;;11.32;7.72;;;11.30;99.90;;;;;;5032308;28;20061;-50
2023/09/01 03:44:44;;;;;;;10.02;8.13;;;11.30;99.90;;;;;;5031814;28;20024;-53
2023/09/01 03:47:10;;;;;;;9.18;7.32;;;11.30;99.90;;;;;;5032241;28;20032;-54
2023/09/01 03:49:36;;;;;;;13.95;8.98;;;11.30;99.90;;;;;;5032769;28;20104;-52
2023/09/01 03:52:02;;;;;;;12.52;7.60;;;11.30;99.90;;;;;;5047570;28;20064;-53
2023/09/01 03:54:28;;;;;;;10.13;7.70;;;11.30;99.90;;;;;;5031862;28;20022;-53
2023/09/01 03:56:54;;;;;;;11.50;7.72;;;11.30;99.90;;;;;;5032206;28;20057;-52
2023/09/01 03:59:19;;;;;;;16.77;9.23;;;11.30;99.90;;;;;;5032163;28;20097;-53
2023/09/01 04:01:46;;;;;;;9.80;8.02;;;11.30;99.90;;;;;;5031874;28;20030;-53
2023/09/01 04:04:12;;;;;;;12.68;8.73;;;11.30;99.90;;;;;;5031467;28;20021;-52
2023/09/01 04:06:39;;;;;;;16.45;7.55;;;11.30;99.90;;;;;;5031599;28;20033;-53
2023/09/01 04:09:05;;;;;;;13.07;8.20;;;11.30;99.90;;;;;;5031947;28;20395;-53
2023/09/01 04:11:31;;;;;;;11.52;8.07;;;11.30;99.90;;;;;;5031842;28;20022;-52
2023/09/01 04:13:56;;;;;;;11.68;7.80;;;11.30;99.90;;;;;;5031815;28;20033;-53
2023/09/01 04:16:22;;;;;;;15.77;8.40;;;11.30;99.90;;;;;;5031399;28;20568;-53
2023/09/01 04:18:48;;;;;;;13.85;8.30;;;11.30;99.90;;;;;;5030918;28;20033;-52
2023/09/01 04:21:14;;;;;;;11.20;7.43;;;11.30;99.90;;;;;;5047067;28;20112;-53
2023/09/01 04:23:40;;;;;;;11.50;8.75;;;11.30;99.90;;;;;;5031639;28;20033;-53
2023/09/01 04:26:07;;;;;;;16.95;9.63;;;11.30;99.90;;;;;;5029727;28;20022;-53
2023/09/01 04:28:33;;;;;;;11.68;9.13;;;11.40;99.90;;;;;;5031827;28;20025;-52
2023/09/01 04:30:59;;;;;;;12.10;8.23;;;11.30;99.90;;;;;;5046809;28;20036;-52
2023/09/01 04:33:29;;;;;;;15.15;10.02;;;11.40;99.90;;;;;;5031479;28;20494;-53
2023/09/01 04:36:04;;;;;;;10.25;8.30;;;11.40;99.90;;;;;;5027327;28;20033;-52
2023/09/01 04:38:29;;;;;;;11.68;9.45;;;11.40;99.90;;;;;;5030686;28;20037;-53
2023/09/01 04:40:59;;;;;;;14.25;9.35;;;11.40;99.90;;;;;;5031344;28;20394;-53
2023/09/01 04:43:29;;;;;;;12.98;9.27;;;11.40;99.90;;;;;;5031534;28;20022;-52
2023/09/01 04:45:56;;;;;;;10.55;7.57;;;11.50;99.90;;;;;;5030833;28;20021;-52
2023/09/01 04:48:21;;;;;;;15.05;9.07;;;11.50;99.90;;;;;;5031297;28;20022;-51
2023/09/01 04:50:47;;;;;;;14.98;9.73;;;11.50;99.90;;;;;;5031482;28;20469;-53
2023/09/01 04:53:14;;;;;;;13.93;8.27;;;11.50;99.90;;;;;;5031145;28;20383;-52
2023/09/01 04:55:39;;;;;;;14.18;11.50;;;11.60;99.90;;;;;;5030671;28;20041;-51
2023/09/01 04:58:05;;;;;;;13.10;8.63;;;11.60;99.90;;;;;;5031145;28;20442;-52
2023/09/01 05:00:30;;;;;;;18.60;9.88;;;11.60;99.90;;;;;;5030968;28;20061;-52
2023/09/01 05:02:56;;;;;;;13.27;9.43;;;11.60;99.90;;;;;;5030761;28;20487;-54
2023/09/01 05:05:21;;;;;;;13.55;9.25;;;11.70;99.90;;;;;;5030775;28;20037;-54
2023/09/01 05:07:47;;;;;;;10.88;8.20;;;11.70;99.90;;;;;;5031190;28;20033;-52
2023/09/01 05:10:12;;;;;;;12.40;8.82;;;11.70;99.90;;;;;;5031110;28;20540;-53
2023/09/01 05:12:38;;;;;;;9.70;8.00;;;11.80;99.90;;;;;;5030701;28;20042;-52
2023/09/01 05:15:04;;;;;;;11.13;7.47;;;11.80;99.90;;;;;;5030342;28;20068;-51
2023/09/01 05:17:30;;;;;;;12.07;8.75;;;11.80;99.90;;;;;;5028616;28;20518;-53
2023/09/01 05:19:57;;;;;;;10.90;6.93;;;11.90;99.90;;;;;;5030602;28;20037;-52
2023/09/01 05:22:23;;;;;;;12.15;7.93;;;12.00;99.90;;;;;;5030464;28;20040;-53
2023/09/01 05:24:49;;;;;;;7.97;6.60;;;12.00;99.90;;;;;;5030039;28;20104;-53
2023/09/01 05:27:18;;;;;;;12.60;7.75;;;12.10;99.90;;;;;;5030845;28;20022;-51
2023/09/01 05:29:44;;;;;;;9.02;7.28;;;12.20;99.90;;;;;;5030726;28;20079;-53
2023/09/01 05:32:10;;;;;;;10.65;7.05;;;12.30;99.90;;;;;;5030612;28;20025;-52
2023/09/01 05:34:35;;;;;;;10.25;7.40;;;12.30;99.90;;;;;;5029952;28;20022;-52
2023/09/01 05:37:01;;;;;;;11.95;7.32;;;12.40;99.90;;;;;;5030140;28;20029;-54
2023/09/01 05:39:26;;;;;;;8.75;6.65;;;12.40;99.90;;;;;;5030332;28;20053;-52
2023/09/01 05:41:51;;;;;;;7.95;5.88;;;12.50;99.90;;;;;;5030048;28;20036;-53
2023/09/01 05:44:18;;;;;;;7.00;5.32;;;12.50;99.90;;;;;;5029700;28;20581;-53
2023/09/01 05:46:43;;;;;;;7.80;5.72;;;12.60;99.90;;;;;;5029852;28;20017;-52
2023/09/01 05:49:12;;;;;;;9.20;6.18;;;12.60;99.90;;;;;;5030074;28;20096;-52
2023/09/01 05:51:38;;;;;;;7.57;5.63;;;12.60;99.90;;;;;;5030276;28;20021;-52
2023/09/01 05:54:03;;;;;;;14.98;7.00;;;12.60;99.90;;;;;;5029814;28;20437;-53
2023/09/01 05:56:29;;;;;;;10.60;6.35;;;12.70;99.90;;;;;;5029831;28;20039;-51
2023/09/01 05:58:54;;;;;;;8.35;5.55;;;12.70;99.90;;;;;;5029942;28;20504;-53
2023/09/01 06:01:20;;;;;;;6.82;4.88;;;12.70;99.90;;;;;;5029949;28;20112;-52
2023/09/01 06:03:46;;;;;;;9.75;5.88;;;12.80;99.90;;;;;;5029694;28;20028;-52
2023/09/01 06:06:11;;;;;;;10.55;6.22;;;12.80;99.90;;;;;;5029180;28;20100;-52
2023/09/01 06:08:37;;;;;;;8.70;5.60;;;12.90;99.90;;;;;;5029699;28;20105;-52
2023/09/01 06:11:03;;;;;;;6.78;4.25;;;12.90;99.90;;;;;;5045093;28;20029;-53
2023/09/01 06:13:29;;;;;;;5.70;4.28;;;13.00;99.90;;;;;;5030287;28;20065;-52
2023/09/01 06:15:54;;;;;;;9.32;5.05;;;13.00;99.90;;;;;;5044721;28;20075;-52
2023/09/01 06:18:20;;;;;;;8.98;4.97;;;13.00;99.90;;;;;;5029622;28;20116;-52
2023/09/01 06:20:45;;;;;;;7.50;4.65;;;13.00;99.90;;;;;;5029548;28;20453;-53
2023/09/01 06:23:11;;;;;;;11.30;6.38;;;13.10;99.90;;;;;;5029451;28;20032;-53
2023/09/01 06:25:36;;;;;;;7.53;4.78;;;13.10;99.90;;;;;;5029280;28;20112;-53
2023/09/01 06:28:02;;;;;;;9.43;4.40;;;13.10;99.90;;;;;;5029383;28;20350;-54
2023/09/01 06:30:28;;;;;;;9.07;5.88;;;13.20;99.90;;;;;;5029453;28;20037;-53
2023/09/01 06:32:53;;;;;;;14.63;5.47;;;13.20;99.90;;;;;;5029617;28;20025;-53
2023/09/01 06:35:19;;;;;;;5.70;5.00;;;13.30;99.90;;;;;;5029085;28;20037;-53
2023/09/01 06:37:44;;;;;;;9.25;5.50;;;13.30;99.90;;;;;;5028321;28;20083;-53
2023/09/01 06:40:10;;;;;;;14.52;5.13;;;13.40;99.90;;;;;;5027858;28;20031;-53
2023/09/01 06:42:35;;;;;;;7.18;4.93;;;13.40;99.90;;;;;;5028838;28;20037;-52
2023/09/01 06:45:01;;;;;;;6.25;4.43;;;13.50;99.90;;;;;;5042425;28;20041;-53
2023/09/01 06:47:26;;;;;;;7.97;4.47;;;13.50;99.90;;;;;;5009733;28;20033;-53
2023/09/01 06:49:52;;;;;;;9.30;5.18;;;13.60;99.90;;;;;;5009756;28;20017;-53
2023/09/01 06:52:18;;;;;;;6.93;4.38;;;13.60;99.90;;;;;;5009536;28;20484;-53
2023/09/01 06:54:43;;;;;;;8.15;4.07;;;13.70;99.90;;;;;;5009146;28;20103;-53
2023/09/01 06:57:09;;;;;;;6.00;4.32;;;13.80;99.90;;;;;;5008364;28;20060;-53
2023/09/01 06:59:34;;;;;;;10.70;4.85;;;13.90;99.90;;;;;;5009582;28;20026;-54
2023/09/01 07:02:00;;;;;;;7.82;5.57;;;14.00;99.90;;;;;;5009502;28;20533;-53
2023/09/01 07:04:26;;;;;;;9.40;5.13;;;14.10;99.90;;;;;;5007721;28;20480;-54
2023/09/01 07:06:51;;;;;;;8.65;5.70;;;14.20;99.90;;;;;;5009481;28;20014;-53
2023/09/01 07:09:18;;;;;;;9.88;5.95;;;14.30;99.90;;;;;;5009620;28;20085;-53
2023/09/01 07:11:43;;;;;;;9.40;5.78;;;14.30;99.90;;;;;;5008195;28;20019;-53
2023/09/01 07:14:09;;;;;;;9.15;6.00;;;14.50;99.90;;;;;;5008705;28;20553;-54
2023/09/01 07:16:34;;;;;;;7.90;4.68;;;14.60;99.90;;;;;;5009359;28;20030;-54
2023/09/01 07:19:00;;;;;;;6.15;4.32;;;14.60;99.90;;;;;;5007050;28;20068;-53
2023/09/01 07:21:25;;;;;;;4.90;3.80;;;14.80;99.90;;;;;;5019170;28;20507;-54
2023/09/01 07:23:51;;;;;;;8.65;4.60;;;14.90;99.90;;;;;;5033463;28;20029;-54
2023/09/01 07:26:17;;;;;;;7.47;4.45;;;15.00;99.90;;;;;;5017785;28;20475;-53
2023/09/01 07:28:43;;;;;;;5.95;4.60;;;15.10;99.90;;;;;;5019899;28;20025;-54
2023/09/01 07:31:13;;;;;;;8.98;4.50;;;15.30;99.90;;;;;;5018149;28;20550;-54
2023/09/01 07:33:43;;;;;;;9.68;6.22;;;15.60;99.90;;;;;;5018161;28;20104;-53
2023/09/01 07:36:12;;;;;;;9.52;5.20;;;15.90;99.90;;;;;;5025906;28;20505;-51
2023/09/01 07:38:38;;;;;;;7.47;4.38;;;16.50;99.90;;;;;;5028823;28;20034;-51
2023/09/01 07:41:04;;;;;;;7.28;4.35;;;17.00;99.90;;;;;;5030782;28;20037;-51
2023/09/01 07:43:31;;;;;;;7.43;4.97;;;17.40;99.90;;;;;;5046781;28;20041;-54
2023/09/01 07:45:57;;;;;;;12.45;5.40;;;17.90;99.90;;;;;;5030520;28;20025;-52
2023/09/01 07:48:22;;;;;;;8.75;5.15;;;18.30;99.90;;;;;;5032473;28;20129;-52
2023/09/01 07:50:48;;;;;;;11.70;4.80;;;18.70;99.90;;;;;;5032427;28;20499;-52
2023/09/01 07:53:14;;;;;;;5.78;4.47;;;18.90;99.90;;;;;;5025821;28;20487;-54
2023/09/01 07:55:39;;;;;;;7.93;4.15;;;19.30;99.90;;;;;;5021209;28;20030;-54
2023/09/01 07:58:05;;;;;;;8.10;3.92;;;19.60;99.90;;;;;;5030180;28;20435;-54
2023/09/01 08:00:31;;;;;;;6.65;4.03;;;20.10;99.90;;;;;;5023046;28;20029;-54
2023/09/01 08:02:57;;;;;;;9.75;4.68;;;20.40;99.90;;;;;;5021334;28;20024;-54
2023/09/01 08:05:23;;;;;;;6.53;4.50;;;20.90;99.90;;;;;;5024017;28;20029;-54
2023/09/01 08:07:51;;;;;;;8.38;4.47;;;21.50;99.90;;;;;;5022258;28;20033;-54
2023/09/01 08:10:17;;;;;;;12.63;5.70;;;22.00;99.90;;;;;;5017339;28;20018;-54
2023/09/01 08:12:42;;;;;;;7.10;4.97;;;22.70;99.30;;;;;;5017776;28;20026;-52
2023/09/01 08:15:08;;;;;;;10.20;5.28;;;23.50;97.40;;;;;;5021612;28;20300;-52
2023/09/01 08:17:35;;;;;;;8.95;4.88;;;24.00;95.30;;;;;;5022374;28;20077;-52
2023/09/01 08:20:03;;;;;;;8.05;5.00;;;24.10;94.30;;;;;;5028806;28;20025;-53
2023/09/01 08:22:31;;;;;;;7.07;4.43;;;24.90;94.20;;;;;;5031623;28;20029;-52
2023/09/01 08:24:57;;;;;;;6.15;4.60;;;25.40;92.20;;;;;;5031060;28;20026;-52
2023/09/01 08:27:22;;;;;;;8.27;5.13;;;26.00;91.80;;;;;;5031594;28;20040;-53
2023/09/01 08:29:48;;;;;;;5.68;3.60;;;26.00;91.10;;;;;;5031775;28;20205;-53
2023/09/01 08:32:13;;;;;;;6.95;5.32;;;26.00;90.60;;;;;;5031854;28;20371;-53
2023/09/01 08:34:39;;;;;;;6.25;4.10;;;25.90;90.30;;;;;;5031078;28;20022;-53
2023/09/01 08:37:05;;;;;;;8.40;3.67;;;26.20;90.30;;;;;;5031320;28;20445;-53
2023/09/01 08:39:31;;;;;;;7.32;4.18;;;26.90;88.70;;;;;;5037884;28;20037;-53
2023/09/01 08:41:57;;;;;;;9.02;5.28;;;26.90;87.10;;;;;;5021526;28;20018;-52
2023/09/01 08:44:25;;;;;;;6.05;3.90;;;27.40;87.00;;;;;;5021514;28;20021;-53
2023/09/01 08:46:57;;;;;;;5.65;4.35;;;27.90;85.40;;;;;;5027032;28;20459;-52
2023/09/01 08:49:25;;;;;;;7.63;4.45;;;28.50;83.40;;;;;;5031637;28;20434;-52
2023/09/01 08:51:57;;;;;;;6.03;4.07;;;28.90;80.80;;;;;;5030166;28;20360;-52
2023/09/01 08:54:24;;;;;;;6.32;3.92;;;28.80;81.20;;;;;;5030558;28;20479;-53
2023/09/01 08:56:50;;;;;;;12.38;6.85;;;29.00;80.80;;;;;;5031019;28;20056;-53
2023/09/01 08:59:15;;;;;;;9.30;5.15;;;28.60;78.10;;;;;;5031100;28;20105;-53
2023/09/01 09:01:41;;;;;;;5.90;2.97;;;29.20;78.60;;;;;;5031021;28;20435;-53
2023/09/01 09:04:07;;;;;;;10.57;5.43;;;29.70;77.80;;;;;;5030413;28;20028;-53
2023/09/01 09:06:40;;;;;;;11.43;6.63;;;30.10;75.90;;;;;;5031231;28;20049;-53
2023/09/01 09:09:14;;;;;;;6.78;4.68;;;29.70;74.70;;;;;;5031379;28;20025;-52
2023/09/01 09:11:53;;;;;;;10.50;5.82;;;29.80;77.40;;;;;;5030832;28;20022;-53
2023/09/01 09:14:19;;;;;;;5.93;4.65;;;29.70;74.10;;;;;;5030286;28;20048;-53
2023/09/01 09:16:55;;;;;;;8.00;4.25;;;29.90;76.60;;;;;;5030571;28;20030;-53
2023/09/01 09:19:22;;;;;;;9.48;4.80;;;30.50;74.00;;;;;;5030356;28;20108;-53
2023/09/01 09:21:48;;;;;;;8.20;4.82;;;30.60;73.30;;;;;;5029647;28;20026;-53
2023/09/01 09:24:13;;;;;;;8.93;4.70;;;31.10;70.80;;;;;;5030077;28;20026;-53
2023/09/01 09:26:39;;;;;;;6.70;3.30;;;31.10;71.30;;;;;;5030501;28;20025;-53
2023/09/01 09:29:07;;;;;;;6.93;4.47;;;31.80;70.10;;;;;;5029834;28;20091;-53
2023/09/01 09:31:39;;;;;;;9.73;6.45;;;31.60;68.70;;;;;;5030173;28;20410;-53
2023/09/01 09:34:19;;;;;;;8.38;5.18;;;31.00;67.30;;;;;;5023769;28;20037;-53
2023/09/01 09:36:46;;;;;;;7.03;3.92;;;29.90;70.20;;;;;;5027970;28;20036;-53
2023/09/01 09:39:41;;;;;;;6.88;4.03;;;30.10;70.50;;;;;;5030186;28;20501;-53
2023/09/01 09:42:06;;;;;;;6.28;3.85;;;30.70;69.20;;;;;;5026496;28;20037;-54
2023/09/01 09:44:36;;;;;;;5.90;4.20;;;30.60;69.50;;;;;;5029652;28;20565;-53
2023/09/01 09:47:10;;;;;;;6.85;3.40;;;30.80;69.30;;;;;;5030228;28;20052;-53
2023/09/01 09:49:37;;;;;;;7.85;3.80;;;31.00;69.40;;;;;;5030598;28;20029;-53
2023/09/01 09:52:08;;;;;;;7.47;4.63;;;30.80;70.10;;;;;;5030500;28;20403;-53
2023/09/01 09:54:37;;;;;;;6.88;3.83;;;30.30;69.00;;;;;;5029748;28;20018;-53
2023/09/01 09:57:12;;;;;;;7.38;3.83;;;30.20;71.80;;;;;;5030068;28;20041;-53
2023/09/01 09:59:45;;;;;;;8.10;3.55;;;30.20;71.60;;;;;;5029677;28;20039;-53
2023/09/01 10:02:21;;;;;;;7.03;3.63;;;30.60;70.30;;;;;;5029773;28;20032;-54
2023/09/01 10:04:48;;;;;;;7.72;3.70;;;30.20;72.00;;;;;;5029116;28;20099;-53
2023/09/01 10:07:14;;;;;;;9.85;4.60;;;30.70;71.30;;;;;;5029577;28;20030;-53
2023/09/01 10:09:41;;;;;;;6.90;3.45;;;30.60;70.50;;;;;;5029637;28;20029;-53
2023/09/01 10:12:07;;;;;;;7.80;3.42;;;30.20;69.80;;;;;;5029810;28;20032;-53
2023/09/01 10:14:37;;;;;;;8.25;3.53;;;30.00;71.10;;;;;;5023727;28;20034;-52
2023/09/01 10:17:04;;;;;;;6.57;3.53;;;29.60;71.60;;;;;;5022536;28;20021;-52
2023/09/01 10:19:30;;;;;;;6.93;3.92;;;29.60;71.30;;;;;;5018160;28;20060;-52
2023/09/01 10:21:55;;;;;;;4.95;3.03;;;28.80;71.30;;;;;;5022166;28;20040;-53
2023/09/01 10:24:21;;;;;;;9.35;4.13;;;28.40;73.50;;;;;;5017588;28;20041;-53
2023/09/01 10:27:09;;;;;;;7.65;3.40;;;28.40;75.90;;;;;;5013920;28;20032;-53
2023/09/01 10:29:35;;;;;;;7.90;3.90;;;28.40;74.70;;;;;;5012175;28;20479;-53
2023/09/01 10:32:16;;;;;;;5.47;2.78;;;29.30;73.60;;;;;;5013922;28;20532;-53
2023/09/01 10:34:50;;;;;;;8.57;3.95;;;29.80;71.70;;;;;;5013726;28;20088;-54
2023/09/01 10:37:27;;;;;;;8.00;3.45;;;29.30;73.10;;;;;;5015041;28;20022;-54
2023/09/01 10:39:53;;;;;;;10.93;4.82;;;28.80;72.90;;;;;;5013739;28;20080;-53
2023/09/01 10:42:38;;;;;;;12.35;4.43;;;28.30;73.80;;;;;;5012479;28;20438;-53
2023/09/01 10:45:08;;;;;;;6.82;3.25;;;27.70;72.50;;;;;;5017117;28;20025;-53
2023/09/01 10:47:34;;;;;;;;;;;27.40;74.60;;;;;;5013318;28;20049;-53
2023/09/01 10:50:04;;;;;;;9.75;4.18;;;26.90;77.00;;;;;;5019531;28;20330;-53
2023/09/01 10:52:31;;;;;;;9.15;4.40;;;26.50;74.40;;;;;;5013161;28;20545;-53
2023/09/01 10:55:00;;;;;;;7.70;4.15;;;26.20;77.30;;;;;;5017533;28;20030;-53
2023/09/01 10:57:46;;;;;;;10.38;3.78;;;26.30;76.70;;;;;;5013918;28;20022;-53
2023/09/01 11:00:29;;;;;;;12.00;4.65;;;26.50;77.90;;;;;;5020517;28;20064;-53
2023/09/01 11:03:29;;;;;;;8.25;3.65;;;27.00;78.20;;;;;;5008984;28;20488;-54
2023/09/01 11:06:02;;;;;;;8.25;3.17;;;27.70;77.00;;;;;;5008809;28;20403;-53
2023/09/01 11:08:28;;;;;;;5.82;3.17;;;28.00;73.30;;;;;;5017927;28;20056;-54
2023/09/01 11:10:57;;;;;;;8.43;3.70;;;28.70;71.90;;;;;;5019616;28;20380;-54
2023/09/01 11:13:25;;;;;;;5.85;2.92;;;28.50;69.80;;;;;;5010131;28;20033;-54
2023/09/01 11:15:51;;;;;;;6.43;3.70;;;27.90;70.70;;;;;;5019775;28;20022;-53
2023/09/01 11:18:18;;;;;;;6.95;3.50;;;27.90;70.40;;;;;;5011829;28;20025;-53
2023/09/01 11:20:45;;;;;;;7.07;3.03;;;28.60;72.70;;;;;;5013036;28;20029;-53
2023/09/01 11:23:10;;;;;;;6.47;3.95;;;28.70;71.60;;;;;;5012741;28;20022;-53
2023/09/01 11:25:36;;;;;;;6.82;3.67;;;27.90;72.30;;;;;;5022686;28;20087;-53
2023/09/01 11:28:02;;;;;;;8.20;3.53;;;27.30;71.40;;;;;;5012934;28;20025;-53
2023/09/01 11:30:27;;;;;;;9.43;3.70;;;27.00;72.40;;;;;;5030489;28;20025;-53
2023/09/01 11:32:54;;;;;;;7.63;3.30;;;27.50;77.00;;;;;;5025456;28;20045;-54
2023/09/01 11:35:24;;;;;;;6.30;3.30;;;28.20;71.10;;;;;;5021276;28;20505;-54
2023/09/01 11:37:49;;;;;;;6.80;2.90;;;28.60;70.30;;;;;;5012411;28;20052;-53
2023/09/01 11:40:15;;;;;;;11.35;3.10;;;28.20;71.90;;;;;;5014869;28;20034;-53
2023/09/01 11:42:43;;;;;;;6.80;3.33;;;28.10;73.80;;;;;;5011502;28;20038;-53
2023/09/01 11:45:10;;;;;;;7.82;3.45;;;27.40;74.10;;;;;;5022364;28;20032;-53
2023/09/01 11:47:36;;;;;;;8.98;3.30;;;27.10;73.00;;;;;;5012777;28;20109;-53
2023/09/01 11:50:02;;;;;;;8.40;3.78;;;26.80;74.50;;;;;;5014554;28;20022;-53
2023/09/01 11:52:28;;;;;;;5.18;3.35;;;26.40;76.20;;;;;;5010973;28;20026;-53
2023/09/01 11:54:54;;;;;;;6.47;3.15;;;26.10;78.20;;;;;;5022343;28;20082;-52
2023/09/01 11:57:20;;;;;;;6.90;3.22;;;25.70;78.50;;;;;;5012284;28;20022;-53
2023/09/01 11:59:48;;;;;;;7.82;3.38;;;25.40;77.70;;;;;;5014282;28;20026;-53
2023/09/01 12:02:14;;;;;;;10.23;4.35;;;25.20;77.20;;;;;;5012236;28;20084;-52
2023/09/01 12:04:50;;;;;;;7.35;3.70;;;24.80;76.40;;;;;;5020548;28;20026;-51
2023/09/01 12:07:26;;;;;;;8.32;3.83;;;24.20;80.10;;;;;;5010997;28;20149;-52
2023/09/01 12:09:55;;;;;;;10.73;3.92;;;24.00;83.40;;;;;;5014379;28;20565;-52
2023/09/01 12:12:21;;;;;;;6.43;4.03;;;23.70;79.80;;;;;;5012409;28;20029;-52
2023/09/01 12:14:47;;;;;;;7.88;4.35;;;23.40;80.40;;;;;;5021251;28;20482;-52
2023/09/01 12:17:21;;;;;;;8.13;4.20;;;23.40;80.60;;;;;;5013153;28;20022;-52
2023/09/01 12:19:48;;;;;;;8.20;3.63;;;23.30;82.20;;;;;;5014093;28;20100;-51
2023/09/01 12:22:14;;;;;;;8.85;3.88;;;23.10;88.60;;;;;;5011456;28;20022;-51
2023/09/01 12:24:49;;;;;;;8.75;4.10;;;22.90;84.00;;;;;;5018776;28;20044;-53
2023/09/01 12:27:15;;;;;;;9.07;4.22;;;22.70;84.60;;;;;;5012978;28;20025;-52
2023/09/01 12:29:40;;;;;;;7.93;4.18;;;22.70;85.60;;;;;;5013775;28;20105;-52
2023/09/01 12:32:06;;;;;;;7.78;4.30;;;22.50;84.50;;;;;;5011736;28;20037;-52
2023/09/01 12:34:31;;;;;;;8.07;4.00;;;22.40;84.70;;;;;;5017199;28;20387;-52
2023/09/01 12:36:57;;;;;;;10.55;4.18;;;22.30;89.00;;;;;;5015829;28;20029;-53
2023/09/01 12:39:22;;;;;;;13.05;4.55;;;22.10;91.10;;;;;;5012950;28;20076;-51
2023/09/01 12:41:48;;;;;;;9.52;4.00;;;22.00;90.30;;;;;;5025621;28;20444;-54
2023/09/01 12:44:13;;;;;;;8.77;4.22;;;21.90;86.50;;;;;;5024503;28;20182;-52